EJU51JR EHAM-LFMN
Flight info
| Callsign | EJU51JR |
|---|---|
| Flight time | 1h 47m |
| Altitude | 35000 |
| Route | EDUPO Z739 MISGO DCT ASBON DCT TUSUK DCT ULNOK L607 ABUKA DCT KRH DCT NATOR DCT TRA DCT RIPUS DCT GERSA DCT SOSON DCT ODINA DCT ENOBA Z185 BORDI |
| Aircraft | A319/M-SDE2E3FGIJ1RWXYZ/LB1 |
Departure
| Time | 2026-04-17 08:30 |
|---|---|
| Airport | Amsterdam Airport Schiphol (EHAM) |
Arrival
| Time | 2026-04-17 10:18 |
|---|---|
| Airport | Nice-Côte d'Azur Airport (LFMN) |
| Time | Latitude | Longitude | Altitude | Speed | Heading |
|---|---|---|---|---|---|
| 2026-04-17 08:06 | 52.31024 | 4.75466 | -1 ft | 0 kts | 148° |
| 2026-04-17 08:14 | 52.31024 | 4.75465 | -1 ft | 0 kts | 148° |
| 2026-04-17 08:22 | 52.31030 | 4.75460 | -1 ft | 4 kts | 149° |
| 2026-04-17 08:22 | 52.31053 | 4.75438 | -1 ft | 4 kts | 141° |
| 2026-04-17 08:22 | 52.31062 | 4.75412 | -1 ft | 4 kts | 84° |
| 2026-04-17 08:22 | 52.31059 | 4.75396 | -1 ft | 0 kts | 69° |
| 2026-04-17 08:24 | 52.31061 | 4.75403 | -1 ft | 2 kts | 65° |
| 2026-04-17 08:25 | 52.31081 | 4.75446 | -1 ft | 8 kts | 53° |
| 2026-04-17 08:25 | 52.31137 | 4.75498 | -1 ft | 10 kts | 359° |
| 2026-04-17 08:25 | 52.31216 | 4.75489 | -1 ft | 14 kts | 356° |
| 2026-04-17 08:25 | 52.31325 | 4.75479 | -1 ft | 17 kts | 356° |
| 2026-04-17 08:26 | 52.31445 | 4.75469 | -1 ft | 15 kts | 357° |
| 2026-04-17 08:26 | 52.31513 | 4.75504 | -1 ft | 11 kts | 70° |
| 2026-04-17 08:26 | 52.31519 | 4.75665 | -1 ft | 17 kts | 86° |
| 2026-04-17 08:26 | 52.31527 | 4.75875 | -1 ft | 19 kts | 86° |
| 2026-04-17 08:27 | 52.31533 | 4.76090 | -1 ft | 19 kts | 87° |
| 2026-04-17 08:27 | 52.31541 | 4.76310 | -1 ft | 20 kts | 86° |
| 2026-04-17 08:27 | 52.31549 | 4.76533 | -1 ft | 20 kts | 86° |
| 2026-04-17 08:27 | 52.31557 | 4.76763 | -1 ft | 20 kts | 86° |
| 2026-04-17 08:28 | 52.31565 | 4.76997 | -1 ft | 21 kts | 86° |
| 2026-04-17 08:28 | 52.31574 | 4.77235 | -1 ft | 21 kts | 87° |
| 2026-04-17 08:28 | 52.31582 | 4.77477 | -1 ft | 21 kts | 87° |
| 2026-04-17 08:28 | 52.31590 | 4.77699 | -1 ft | 15 kts | 87° |
| 2026-04-17 08:29 | 52.31595 | 4.77865 | 0 ft | 15 kts | 87° |
| 2026-04-17 08:29 | 52.31591 | 4.77961 | 0 ft | 5 kts | 126° |
| 2026-04-17 08:29 | 52.31563 | 4.77965 | 1 ft | 0 kts | 184° |
| 2026-04-17 08:29 | 52.31554 | 4.77964 | 1 ft | 13 kts | 184° |
| 2026-04-17 08:30 | 52.31178 | 4.77929 | -2 ft | 92 kts | 183° |
| 2026-04-17 08:30 | 52.30323 | 4.77848 | 17 ft | 150 kts | 183° |
| 2026-04-17 08:30 | 52.29302 | 4.77759 | 697 ft | 144 kts | 183° |
| 2026-04-17 08:30 | 52.28302 | 4.77687 | 1349 ft | 151 kts | 185° |
| 2026-04-17 08:31 | 52.27159 | 4.77596 | 1726 ft | 176 kts | 183° |
| 2026-04-17 08:31 | 52.25936 | 4.78337 | 1963 ft | 213 kts | 137° |
| 2026-04-17 08:31 | 52.25278 | 4.80600 | 2600 ft | 230 kts | 102° |
| 2026-04-17 08:31 | 52.25155 | 4.83222 | 3500 ft | 235 kts | 92° |
| 2026-04-17 08:32 | 52.25188 | 4.85922 | 4316 ft | 245 kts | 90° |
| 2026-04-17 08:32 | 52.25239 | 4.88833 | 4833 ft | 267 kts | 90° |
| 2026-04-17 08:32 | 52.25260 | 4.91918 | 5658 ft | 275 kts | 91° |
| 2026-04-17 08:32 | 52.25245 | 4.95058 | 6624 ft | 278 kts | 92° |
| 2026-04-17 08:33 | 52.25200 | 4.98226 | 7543 ft | 281 kts | 93° |
| 2026-04-17 08:33 | 52.25130 | 5.01451 | 8407 ft | 287 kts | 94° |
| 2026-04-17 08:33 | 52.25042 | 5.04737 | 9254 ft | 293 kts | 95° |
| 2026-04-17 08:33 | 52.24943 | 5.08089 | 10100 ft | 299 kts | 95° |
| 2026-04-17 08:34 | 52.24835 | 5.11560 | 10592 ft | 317 kts | 95° |
| 2026-04-17 08:34 | 52.24717 | 5.15275 | 10957 ft | 337 kts | 95° |
| 2026-04-17 08:34 | 52.24600 | 5.19140 | 11634 ft | 344 kts | 95° |
| 2026-04-17 08:34 | 52.24357 | 5.23042 | 12384 ft | 348 kts | 104° |
| 2026-04-17 08:35 | 52.23641 | 5.26808 | 13138 ft | 349 kts | 117° |
| 2026-04-17 08:35 | 52.22453 | 5.30251 | 13904 ft | 349 kts | 128° |
| 2026-04-17 08:35 | 52.21036 | 5.33482 | 14599 ft | 352 kts | 129° |
| 2026-04-17 08:35 | 52.19604 | 5.36751 | 15270 ft | 356 kts | 129° |
| 2026-04-17 08:36 | 52.18158 | 5.40060 | 15937 ft | 360 kts | 129° |
| 2026-04-17 08:36 | 52.16701 | 5.43402 | 16577 ft | 364 kts | 128° |
| 2026-04-17 08:36 | 52.15226 | 5.46794 | 17196 ft | 369 kts | 128° |
| 2026-04-17 08:36 | 52.13733 | 5.50220 | 17850 ft | 373 kts | 128° |
| 2026-04-17 08:37 | 52.12222 | 5.53682 | 18505 ft | 377 kts | 128° |
| 2026-04-17 08:37 | 52.10694 | 5.57180 | 19064 ft | 381 kts | 128° |
| 2026-04-17 08:37 | 52.09150 | 5.60704 | 19615 ft | 385 kts | 128° |
| 2026-04-17 08:37 | 52.07586 | 5.64264 | 20174 ft | 389 kts | 128° |
| 2026-04-17 08:38 | 52.05981 | 5.67831 | 20727 ft | 392 kts | 132° |
| 2026-04-17 08:38 | 52.04197 | 5.71192 | 21283 ft | 395 kts | 134° |
| 2026-04-17 08:38 | 52.02385 | 5.74571 | 21835 ft | 399 kts | 134° |
| 2026-04-17 08:38 | 52.00556 | 5.77978 | 22376 ft | 402 kts | 134° |
| 2026-04-17 08:39 | 51.98707 | 5.81420 | 22931 ft | 406 kts | 134° |
| 2026-04-17 08:39 | 51.96842 | 5.84890 | 23446 ft | 410 kts | 134° |
| 2026-04-17 08:39 | 51.94960 | 5.88400 | 23933 ft | 415 kts | 134° |
| 2026-04-17 08:39 | 51.93060 | 5.91953 | 24348 ft | 419 kts | 134° |
| 2026-04-17 08:40 | 51.91144 | 5.95535 | 24778 ft | 422 kts | 134° |
| 2026-04-17 08:40 | 51.89210 | 5.99138 | 25191 ft | 426 kts | 134° |
| 2026-04-17 08:40 | 51.87258 | 6.02766 | 25622 ft | 428 kts | 134° |
| 2026-04-17 08:40 | 51.85295 | 6.06413 | 26041 ft | 431 kts | 134° |
| 2026-04-17 08:41 | 51.83316 | 6.10080 | 26453 ft | 434 kts | 134° |
| 2026-04-17 08:41 | 51.81316 | 6.13764 | 26861 ft | 437 kts | 134° |
| 2026-04-17 08:41 | 51.79297 | 6.17462 | 27265 ft | 440 kts | 134° |
| 2026-04-17 08:41 | 51.77260 | 6.21175 | 27659 ft | 443 kts | 134° |
| 2026-04-17 08:42 | 51.75206 | 6.24914 | 28048 ft | 446 kts | 134° |
| 2026-04-17 08:42 | 51.73143 | 6.28678 | 28438 ft | 449 kts | 134° |
| 2026-04-17 08:42 | 51.71068 | 6.32467 | 28829 ft | 452 kts | 133° |
| 2026-04-17 08:42 | 51.68974 | 6.36280 | 29198 ft | 456 kts | 133° |
| 2026-04-17 08:43 | 51.66862 | 6.40108 | 29567 ft | 459 kts | 134° |
| 2026-04-17 08:43 | 51.64734 | 6.43954 | 29940 ft | 462 kts | 134° |
| 2026-04-17 08:43 | 51.62594 | 6.47829 | 30288 ft | 465 kts | 133° |
| 2026-04-17 08:43 | 51.60472 | 6.51675 | 30600 ft | 467 kts | 133° |
| 2026-04-17 08:44 | 51.58307 | 6.55587 | 30908 ft | 469 kts | 133° |
| 2026-04-17 08:44 | 51.56129 | 6.59512 | 31210 ft | 472 kts | 133° |
| 2026-04-17 08:44 | 51.53942 | 6.63453 | 31511 ft | 474 kts | 133° |
| 2026-04-17 08:44 | 51.51743 | 6.67416 | 31812 ft | 476 kts | 133° |
| 2026-04-17 08:45 | 51.49542 | 6.71379 | 32226 ft | 475 kts | 133° |
| 2026-04-17 08:45 | 51.47343 | 6.75329 | 32658 ft | 474 kts | 133° |
| 2026-04-17 08:45 | 51.45139 | 6.79272 | 33025 ft | 475 kts | 133° |
| 2026-04-17 08:45 | 51.42932 | 6.83207 | 33416 ft | 475 kts | 133° |
| 2026-04-17 08:46 | 51.40601 | 6.86947 | 33811 ft | 473 kts | 141° |
| 2026-04-17 08:46 | 51.37983 | 6.90108 | 34215 ft | 470 kts | 150° |
| 2026-04-17 08:46 | 51.35220 | 6.92890 | 34560 ft | 469 kts | 150° |
| 2026-04-17 08:46 | 51.32458 | 6.95664 | 34921 ft | 469 kts | 150° |
| 2026-04-17 08:47 | 51.29694 | 6.98438 | 35181 ft | 469 kts | 150° |
| 2026-04-17 08:47 | 51.24233 | 7.03916 | 35246 ft | 458 kts | 150° |
| 2026-04-17 08:48 | 51.18854 | 7.09311 | 35247 ft | 456 kts | 150° |
| 2026-04-17 08:48 | 51.13489 | 7.14676 | 35246 ft | 456 kts | 150° |
| 2026-04-17 08:49 | 51.08106 | 7.20040 | 35247 ft | 456 kts | 150° |
| 2026-04-17 08:49 | 51.02718 | 7.25368 | 35244 ft | 456 kts | 150° |
| 2026-04-17 08:50 | 50.97330 | 7.30688 | 35243 ft | 456 kts | 150° |
| 2026-04-17 08:50 | 50.91947 | 7.36011 | 35237 ft | 456 kts | 150° |
| 2026-04-17 08:51 | 50.86569 | 7.41316 | 35234 ft | 455 kts | 150° |
| 2026-04-17 08:51 | 50.81185 | 7.46591 | 35232 ft | 455 kts | 150° |
| 2026-04-17 08:52 | 50.75794 | 7.51866 | 35233 ft | 456 kts | 150° |
| 2026-04-17 08:52 | 50.70399 | 7.57158 | 35229 ft | 457 kts | 149° |
| 2026-04-17 08:53 | 50.65074 | 7.62648 | 35231 ft | 458 kts | 148° |
| 2026-04-17 08:53 | 50.59780 | 7.68229 | 35221 ft | 458 kts | 148° |
| 2026-04-17 08:54 | 50.54469 | 7.73761 | 35234 ft | 457 kts | 148° |
| 2026-04-17 08:54 | 50.49148 | 7.79232 | 35243 ft | 457 kts | 148° |
| 2026-04-17 08:55 | 50.43823 | 7.84677 | 35241 ft | 457 kts | 148° |
| 2026-04-17 08:55 | 50.38498 | 7.90111 | 35247 ft | 457 kts | 148° |
| 2026-04-17 08:56 | 50.33172 | 7.95533 | 35234 ft | 456 kts | 149° |
| 2026-04-17 08:56 | 50.27847 | 8.00948 | 35240 ft | 456 kts | 149° |
| 2026-04-17 08:57 | 50.22527 | 8.06347 | 35235 ft | 456 kts | 149° |
| 2026-04-17 08:57 | 50.17210 | 8.11722 | 35239 ft | 455 kts | 149° |
| 2026-04-17 08:58 | 50.11879 | 8.17064 | 35215 ft | 455 kts | 150° |
| 2026-04-17 08:58 | 50.06470 | 8.22139 | 35220 ft | 453 kts | 152° |
| 2026-04-17 08:59 | 50.01018 | 8.27075 | 35238 ft | 454 kts | 152° |
| 2026-04-17 08:59 | 49.95573 | 8.32035 | 35232 ft | 454 kts | 152° |
| 2026-04-17 09:00 | 49.90136 | 8.37036 | 35228 ft | 454 kts | 152° |
| 2026-04-17 09:00 | 49.84777 | 8.42255 | 35214 ft | 457 kts | 143° |
| 2026-04-17 09:01 | 49.80080 | 8.48901 | 35220 ft | 458 kts | 138° |
| 2026-04-17 09:01 | 49.75423 | 8.55627 | 35223 ft | 457 kts | 142° |
| 2026-04-17 09:02 | 49.70050 | 8.60675 | 35224 ft | 450 kts | 161° |
| 2026-04-17 09:02 | 49.64048 | 8.63043 | 35214 ft | 444 kts | 173° |
| 2026-04-17 09:03 | 49.58005 | 8.64728 | 35226 ft | 444 kts | 173° |
| 2026-04-17 09:03 | 49.51917 | 8.66424 | 35227 ft | 445 kts | 173° |
| 2026-04-17 09:04 | 49.46802 | 8.67537 | 35227 ft | 440 kts | 182° |
| 2026-04-17 09:04 | 49.39799 | 8.66543 | 35216 ft | 434 kts | 192° |
| 2026-04-17 09:05 | 49.33806 | 8.65324 | 35219 ft | 434 kts | 192° |
| 2026-04-17 09:05 | 49.27809 | 8.64127 | 35220 ft | 435 kts | 192° |
| 2026-04-17 09:06 | 49.21812 | 8.62922 | 35206 ft | 435 kts | 192° |
| 2026-04-17 09:06 | 49.16786 | 8.61910 | 35194 ft | 435 kts | 192° |
| 2026-04-17 09:07 | 49.10786 | 8.60709 | 35199 ft | 435 kts | 192° |
| 2026-04-17 09:07 | 49.04778 | 8.59518 | 35203 ft | 435 kts | 192° |
| 2026-04-17 09:08 | 48.98777 | 8.58306 | 35206 ft | 435 kts | 193° |
| 2026-04-17 09:08 | 48.92890 | 8.56616 | 35197 ft | 432 kts | 197° |
| 2026-04-17 09:09 | 48.87000 | 8.54543 | 35199 ft | 432 kts | 198° |
| 2026-04-17 09:09 | 48.81139 | 8.52514 | 35206 ft | 432 kts | 197° |
| 2026-04-17 09:10 | 48.72314 | 8.49680 | 35198 ft | 432 kts | 196° |
| 2026-04-17 09:10 | 48.66464 | 8.47836 | 35203 ft | 432 kts | 196° |
| 2026-04-17 09:11 | 48.60575 | 8.45955 | 35205 ft | 432 kts | 196° |
| 2026-04-17 09:11 | 48.54692 | 8.44069 | 35210 ft | 432 kts | 196° |
| 2026-04-17 09:12 | 48.48813 | 8.42195 | 35214 ft | 432 kts | 196° |
| 2026-04-17 09:12 | 48.42931 | 8.40320 | 35215 ft | 432 kts | 196° |
| 2026-04-17 09:13 | 48.37045 | 8.38450 | 35218 ft | 432 kts | 196° |
| 2026-04-17 09:13 | 48.31158 | 8.36588 | 35211 ft | 432 kts | 196° |
| 2026-04-17 09:14 | 48.25277 | 8.34731 | 35212 ft | 432 kts | 196° |
| 2026-04-17 09:14 | 48.19391 | 8.32924 | 35212 ft | 433 kts | 192° |
| 2026-04-17 09:15 | 48.13324 | 8.32997 | 35195 ft | 442 kts | 174° |
| 2026-04-17 09:15 | 48.07258 | 8.34492 | 35205 ft | 442 kts | 174° |
| 2026-04-17 09:16 | 48.01190 | 8.35960 | 35203 ft | 442 kts | 174° |
| 2026-04-17 09:16 | 47.95119 | 8.37412 | 35215 ft | 442 kts | 174° |
| 2026-04-17 09:17 | 47.89050 | 8.38873 | 35207 ft | 442 kts | 174° |
| 2026-04-17 09:17 | 47.82986 | 8.40336 | 35215 ft | 442 kts | 174° |
| 2026-04-17 09:18 | 47.76916 | 8.41797 | 35219 ft | 442 kts | 174° |
| 2026-04-17 09:18 | 47.70847 | 8.43248 | 35225 ft | 442 kts | 174° |
| 2026-04-17 09:19 | 47.64802 | 8.44497 | 35225 ft | 441 kts | 177° |
| 2026-04-17 09:19 | 47.58693 | 8.45336 | 35232 ft | 441 kts | 179° |
| 2026-04-17 09:20 | 47.52582 | 8.46105 | 35236 ft | 441 kts | 178° |
| 2026-04-17 09:20 | 47.46472 | 8.46966 | 35227 ft | 441 kts | 177° |
| 2026-04-17 09:21 | 47.40371 | 8.47885 | 35233 ft | 441 kts | 177° |
| 2026-04-17 09:21 | 47.34270 | 8.48799 | 35234 ft | 441 kts | 177° |
| 2026-04-17 09:22 | 47.28167 | 8.49700 | 35235 ft | 441 kts | 178° |
| 2026-04-17 09:22 | 47.22071 | 8.50581 | 35225 ft | 440 kts | 178° |
| 2026-04-17 09:23 | 47.15980 | 8.51462 | 35222 ft | 440 kts | 177° |
| 2026-04-17 09:23 | 47.09888 | 8.52343 | 35216 ft | 440 kts | 178° |
| 2026-04-17 09:24 | 47.03800 | 8.53223 | 35208 ft | 440 kts | 177° |
| 2026-04-17 09:24 | 46.97711 | 8.54102 | 35209 ft | 440 kts | 177° |
| 2026-04-17 09:25 | 46.91620 | 8.54980 | 35214 ft | 440 kts | 177° |
| 2026-04-17 09:25 | 46.85525 | 8.55862 | 35215 ft | 440 kts | 177° |
| 2026-04-17 09:26 | 46.79424 | 8.56733 | 35224 ft | 440 kts | 177° |
| 2026-04-17 09:26 | 46.73329 | 8.57600 | 35225 ft | 440 kts | 177° |
| 2026-04-17 09:27 | 46.67234 | 8.58466 | 35219 ft | 441 kts | 177° |
| 2026-04-17 09:27 | 46.61127 | 8.59339 | 35212 ft | 441 kts | 177° |
| 2026-04-17 09:28 | 46.55021 | 8.60212 | 35215 ft | 441 kts | 177° |
| 2026-04-17 09:28 | 46.48919 | 8.61083 | 35217 ft | 441 kts | 177° |
| 2026-04-17 09:29 | 46.42819 | 8.61951 | 35214 ft | 440 kts | 177° |
| 2026-04-17 09:29 | 46.36720 | 8.62816 | 35210 ft | 440 kts | 177° |
| 2026-04-17 09:30 | 46.30625 | 8.63663 | 35212 ft | 440 kts | 177° |
| 2026-04-17 09:30 | 46.24570 | 8.64504 | 35214 ft | 440 kts | 177° |
| 2026-04-17 09:31 | 46.18433 | 8.65373 | 35205 ft | 440 kts | 177° |
| 2026-04-17 09:31 | 46.12337 | 8.66216 | 35205 ft | 440 kts | 179° |
| 2026-04-17 09:32 | 46.06296 | 8.65644 | 35198 ft | 434 kts | 192° |
| 2026-04-17 09:32 | 46.00306 | 8.64409 | 35192 ft | 435 kts | 191° |
| 2026-04-17 09:33 | 45.94346 | 8.63196 | 35195 ft | 436 kts | 191° |
| 2026-04-17 09:33 | 45.88344 | 8.61973 | 35199 ft | 436 kts | 191° |
| 2026-04-17 09:34 | 45.82343 | 8.60754 | 35184 ft | 435 kts | 191° |
| 2026-04-17 09:34 | 45.76344 | 8.59539 | 35182 ft | 435 kts | 191° |
| 2026-04-17 09:35 | 45.70348 | 8.58328 | 35179 ft | 435 kts | 191° |
| 2026-04-17 09:35 | 45.64355 | 8.57118 | 35176 ft | 435 kts | 191° |
| 2026-04-17 09:36 | 45.58358 | 8.55911 | 35179 ft | 435 kts | 191° |
| 2026-04-17 09:36 | 45.52357 | 8.54697 | 35183 ft | 436 kts | 191° |
| 2026-04-17 09:37 | 45.46352 | 8.53491 | 35185 ft | 436 kts | 191° |
| 2026-04-17 09:37 | 45.40313 | 8.52284 | 35155 ft | 444 kts | 191° |
| 2026-04-17 09:38 | 45.34173 | 8.51056 | 35008 ft | 446 kts | 191° |
| 2026-04-17 09:38 | 45.28012 | 8.49829 | 35005 ft | 447 kts | 191° |
| 2026-04-17 09:39 | 45.21846 | 8.48603 | 35005 ft | 447 kts | 191° |
| 2026-04-17 09:39 | 45.15734 | 8.47401 | 35178 ft | 439 kts | 191° |
| 2026-04-17 09:40 | 45.09706 | 8.46204 | 34916 ft | 437 kts | 191° |
| 2026-04-17 09:40 | 45.06698 | 8.45610 | 34672 ft | 437 kts | 191° |
| 2026-04-17 09:40 | 45.03691 | 8.45019 | 34430 ft | 436 kts | 191° |
| 2026-04-17 09:41 | 45.00690 | 8.44431 | 34187 ft | 435 kts | 191° |
| 2026-04-17 09:41 | 44.97701 | 8.43843 | 33904 ft | 433 kts | 191° |
| 2026-04-17 09:41 | 44.94725 | 8.43253 | 33624 ft | 431 kts | 191° |
| 2026-04-17 09:41 | 44.91763 | 8.42660 | 33360 ft | 429 kts | 191° |
| 2026-04-17 09:42 | 44.88819 | 8.42075 | 33090 ft | 426 kts | 191° |
| 2026-04-17 09:42 | 44.85885 | 8.41495 | 32817 ft | 425 kts | 191° |
| 2026-04-17 09:42 | 44.82964 | 8.40927 | 32554 ft | 423 kts | 190° |
| 2026-04-17 09:42 | 44.80057 | 8.40368 | 32295 ft | 421 kts | 190° |
| 2026-04-17 09:43 | 44.77160 | 8.39809 | 32038 ft | 419 kts | 191° |
| 2026-04-17 09:43 | 44.74282 | 8.39246 | 31780 ft | 417 kts | 191° |
| 2026-04-17 09:43 | 44.71419 | 8.38685 | 31528 ft | 415 kts | 191° |
| 2026-04-17 09:43 | 44.68567 | 8.38126 | 31273 ft | 413 kts | 190° |
| 2026-04-17 09:44 | 44.65732 | 8.37573 | 31022 ft | 410 kts | 190° |
| 2026-04-17 09:44 | 44.62910 | 8.37023 | 30776 ft | 407 kts | 190° |
| 2026-04-17 09:44 | 44.60121 | 8.36482 | 30379 ft | 404 kts | 190° |
| 2026-04-17 09:44 | 44.57344 | 8.35943 | 29883 ft | 402 kts | 190° |
| 2026-04-17 09:45 | 44.54626 | 8.35412 | 29456 ft | 398 kts | 190° |
| 2026-04-17 09:45 | 44.51893 | 8.34879 | 29020 ft | 395 kts | 190° |
| 2026-04-17 09:45 | 44.49180 | 8.34348 | 28600 ft | 392 kts | 190° |
| 2026-04-17 09:45 | 44.46488 | 8.33826 | 28184 ft | 389 kts | 190° |
| 2026-04-17 09:46 | 44.43813 | 8.33310 | 27760 ft | 387 kts | 190° |
| 2026-04-17 09:46 | 44.41158 | 8.32795 | 27339 ft | 384 kts | 189° |
| 2026-04-17 09:46 | 44.38519 | 8.32283 | 26912 ft | 382 kts | 189° |
| 2026-04-17 09:46 | 44.35893 | 8.31776 | 26475 ft | 380 kts | 189° |
| 2026-04-17 09:47 | 44.33323 | 8.31027 | 26047 ft | 375 kts | 200° |
| 2026-04-17 09:47 | 44.30949 | 8.29588 | 25607 ft | 370 kts | 212° |
| 2026-04-17 09:47 | 44.28870 | 8.27526 | 25177 ft | 365 kts | 224° |
| 2026-04-17 09:47 | 44.27162 | 8.24950 | 24739 ft | 360 kts | 236° |
| 2026-04-17 09:48 | 44.25737 | 8.22093 | 24303 ft | 358 kts | 238° |
| 2026-04-17 09:48 | 44.24372 | 8.19317 | 23881 ft | 368 kts | 238° |
| 2026-04-17 09:48 | 44.22870 | 8.16229 | 23461 ft | 397 kts | 238° |
| 2026-04-17 09:48 | 44.21307 | 8.13044 | 22935 ft | 397 kts | 237° |
| 2026-04-17 09:49 | 44.19750 | 8.09878 | 22429 ft | 396 kts | 237° |
| 2026-04-17 09:49 | 44.18158 | 8.06634 | 21926 ft | 409 kts | 237° |
| 2026-04-17 09:49 | 44.16563 | 8.03387 | 21489 ft | 404 kts | 237° |
| 2026-04-17 09:49 | 44.14960 | 8.00220 | 21279 ft | 394 kts | 236° |
| 2026-04-17 09:50 | 44.13390 | 7.97166 | 21142 ft | 382 kts | 236° |
| 2026-04-17 09:50 | 44.11862 | 7.94194 | 20836 ft | 374 kts | 236° |
| 2026-04-17 09:50 | 44.10363 | 7.91257 | 20402 ft | 371 kts | 236° |
| 2026-04-17 09:50 | 44.08887 | 7.88338 | 19973 ft | 368 kts | 237° |
| 2026-04-17 09:51 | 44.07430 | 7.85433 | 19544 ft | 365 kts | 237° |
| 2026-04-17 09:51 | 44.05987 | 7.82544 | 19125 ft | 362 kts | 237° |
| 2026-04-17 09:51 | 44.04548 | 7.79676 | 18709 ft | 360 kts | 237° |
| 2026-04-17 09:51 | 44.03119 | 7.76831 | 18279 ft | 358 kts | 237° |
| 2026-04-17 09:52 | 44.01699 | 7.74007 | 17806 ft | 355 kts | 237° |
| 2026-04-17 09:52 | 44.00763 | 7.72148 | 17491 ft | 354 kts | 237° |
| 2026-04-17 09:52 | 43.99360 | 7.69355 | 17051 ft | 352 kts | 237° |
| 2026-04-17 09:52 | 43.97961 | 7.66581 | 16628 ft | 349 kts | 237° |
| 2026-04-17 09:53 | 43.96580 | 7.63851 | 16383 ft | 341 kts | 236° |
| 2026-04-17 09:53 | 43.95233 | 7.61192 | 16203 ft | 333 kts | 236° |
| 2026-04-17 09:53 | 43.93919 | 7.58593 | 16036 ft | 326 kts | 237° |
| 2026-04-17 09:53 | 43.92625 | 7.56028 | 15863 ft | 323 kts | 237° |
| 2026-04-17 09:54 | 43.91336 | 7.53476 | 15693 ft | 322 kts | 237° |
| 2026-04-17 09:54 | 43.90049 | 7.50937 | 15515 ft | 321 kts | 236° |
| 2026-04-17 09:54 | 43.88765 | 7.48408 | 15345 ft | 320 kts | 236° |
| 2026-04-17 09:54 | 43.87481 | 7.45887 | 15176 ft | 320 kts | 236° |
| 2026-04-17 09:55 | 43.86180 | 7.43396 | 15006 ft | 319 kts | 231° |
| 2026-04-17 09:55 | 43.84449 | 7.41485 | 14837 ft | 321 kts | 206° |
| 2026-04-17 09:55 | 43.82297 | 7.40731 | 14663 ft | 322 kts | 181° |
| 2026-04-17 09:55 | 43.80110 | 7.41280 | 14485 ft | 322 kts | 156° |
| 2026-04-17 09:56 | 43.78247 | 7.42963 | 14310 ft | 321 kts | 140° |
| 2026-04-17 09:56 | 43.76515 | 7.44901 | 14136 ft | 320 kts | 140° |
| 2026-04-17 09:56 | 43.74790 | 7.46845 | 13960 ft | 319 kts | 140° |
| 2026-04-17 09:56 | 43.73074 | 7.48783 | 13766 ft | 318 kts | 140° |
| 2026-04-17 09:57 | 43.71358 | 7.50712 | 13595 ft | 317 kts | 140° |
| 2026-04-17 09:57 | 43.69654 | 7.52637 | 13421 ft | 316 kts | 137° |
| 2026-04-17 09:57 | 43.68198 | 7.54889 | 13250 ft | 314 kts | 123° |
| 2026-04-17 09:57 | 43.67169 | 7.57529 | 13080 ft | 312 kts | 110° |
| 2026-04-17 09:58 | 43.66446 | 7.60343 | 12918 ft | 310 kts | 108° |
| 2026-04-17 09:58 | 43.65732 | 7.63148 | 12746 ft | 309 kts | 108° |
| 2026-04-17 09:58 | 43.65017 | 7.65938 | 12577 ft | 308 kts | 108° |
| 2026-04-17 09:58 | 43.64301 | 7.68720 | 12326 ft | 307 kts | 108° |
| 2026-04-17 09:59 | 43.63588 | 7.71487 | 12090 ft | 305 kts | 109° |
| 2026-04-17 09:59 | 43.62878 | 7.74244 | 11835 ft | 304 kts | 109° |
| 2026-04-17 09:59 | 43.62170 | 7.76990 | 11590 ft | 303 kts | 109° |
| 2026-04-17 09:59 | 43.61463 | 7.79726 | 11348 ft | 302 kts | 109° |
| 2026-04-17 10:00 | 43.60758 | 7.82450 | 11098 ft | 301 kts | 109° |
| 2026-04-17 10:00 | 43.60052 | 7.85165 | 10854 ft | 300 kts | 109° |
| 2026-04-17 10:00 | 43.59349 | 7.87871 | 10615 ft | 299 kts | 109° |
| 2026-04-17 10:00 | 43.58650 | 7.90567 | 10376 ft | 298 kts | 109° |
| 2026-04-17 10:01 | 43.57953 | 7.93254 | 10143 ft | 297 kts | 109° |
| 2026-04-17 10:01 | 43.57259 | 7.95922 | 9994 ft | 295 kts | 109° |
| 2026-04-17 10:01 | 43.56567 | 7.98584 | 9854 ft | 295 kts | 109° |
| 2026-04-17 10:01 | 43.55824 | 8.01211 | 9729 ft | 294 kts | 117° |
| 2026-04-17 10:02 | 43.54629 | 8.03485 | 9596 ft | 294 kts | 135° |
| 2026-04-17 10:02 | 43.52988 | 8.05146 | 9465 ft | 293 kts | 153° |
| 2026-04-17 10:02 | 43.51066 | 8.06050 | 9337 ft | 293 kts | 171° |
| 2026-04-17 10:02 | 43.49042 | 8.06115 | 9205 ft | 291 kts | 188° |
| 2026-04-17 10:03 | 43.47106 | 8.05342 | 9079 ft | 290 kts | 206° |
| 2026-04-17 10:03 | 43.45434 | 8.03827 | 8948 ft | 288 kts | 222° |
| 2026-04-17 10:03 | 43.43931 | 8.02007 | 8821 ft | 288 kts | 222° |
| 2026-04-17 10:03 | 43.42424 | 8.00194 | 8695 ft | 287 kts | 222° |
| 2026-04-17 10:04 | 43.40921 | 7.98391 | 8567 ft | 287 kts | 222° |
| 2026-04-17 10:04 | 43.39573 | 7.96394 | 8436 ft | 285 kts | 238° |
| 2026-04-17 10:04 | 43.38772 | 7.93929 | 8308 ft | 283 kts | 257° |
| 2026-04-17 10:04 | 43.38592 | 7.91290 | 8183 ft | 281 kts | 275° |
| 2026-04-17 10:05 | 43.39041 | 7.88693 | 8058 ft | 280 kts | 294° |
| 2026-04-17 10:05 | 43.39965 | 7.86341 | 7936 ft | 280 kts | 300° |
| 2026-04-17 10:05 | 43.40928 | 7.84017 | 7809 ft | 279 kts | 300° |
| 2026-04-17 10:05 | 43.41857 | 7.81635 | 7680 ft | 279 kts | 292° |
| 2026-04-17 10:06 | 43.42417 | 7.79078 | 7559 ft | 279 kts | 286° |
| 2026-04-17 10:06 | 43.42944 | 7.76510 | 7436 ft | 279 kts | 286° |
| 2026-04-17 10:06 | 43.43465 | 7.73983 | 7313 ft | 278 kts | 286° |
| 2026-04-17 10:06 | 43.43992 | 7.71425 | 7191 ft | 278 kts | 286° |
| 2026-04-17 10:07 | 43.44514 | 7.68868 | 7070 ft | 277 kts | 286° |
| 2026-04-17 10:07 | 43.45033 | 7.66314 | 6949 ft | 277 kts | 286° |
| 2026-04-17 10:07 | 43.45550 | 7.63765 | 6830 ft | 276 kts | 286° |
| 2026-04-17 10:07 | 43.46067 | 7.61218 | 6693 ft | 276 kts | 286° |
| 2026-04-17 10:08 | 43.46582 | 7.58676 | 6589 ft | 276 kts | 286° |
| 2026-04-17 10:08 | 43.47098 | 7.56135 | 6462 ft | 275 kts | 285° |
| 2026-04-17 10:08 | 43.47378 | 7.53535 | 6333 ft | 276 kts | 271° |
| 2026-04-17 10:08 | 43.47176 | 7.50919 | 6208 ft | 275 kts | 257° |
| 2026-04-17 10:09 | 43.46740 | 7.48351 | 6080 ft | 275 kts | 257° |
| 2026-04-17 10:09 | 43.46309 | 7.45788 | 5954 ft | 275 kts | 257° |
| 2026-04-17 10:09 | 43.45883 | 7.43225 | 5834 ft | 274 kts | 257° |
| 2026-04-17 10:09 | 43.45458 | 7.40670 | 5703 ft | 274 kts | 257° |
| 2026-04-17 10:10 | 43.45032 | 7.38116 | 5576 ft | 273 kts | 257° |
| 2026-04-17 10:10 | 43.44607 | 7.35572 | 5410 ft | 271 kts | 257° |
| 2026-04-17 10:10 | 43.44189 | 7.33075 | 5057 ft | 266 kts | 256° |
| 2026-04-17 10:11 | 43.43370 | 7.28189 | 4533 ft | 251 kts | 256° |
| 2026-04-17 10:11 | 43.42990 | 7.25918 | 4460 ft | 237 kts | 256° |
| 2026-04-17 10:11 | 43.42812 | 7.23732 | 4363 ft | 225 kts | 274° |
| 2026-04-17 10:11 | 43.43158 | 7.21670 | 4267 ft | 221 kts | 293° |
| 2026-04-17 10:12 | 43.43972 | 7.19898 | 4168 ft | 220 kts | 311° |
| 2026-04-17 10:12 | 43.44964 | 7.18352 | 4071 ft | 210 kts | 311° |
| 2026-04-17 10:12 | 43.46000 | 7.17012 | 3997 ft | 200 kts | 329° |
| 2026-04-17 10:12 | 43.47268 | 7.16302 | 4030 ft | 192 kts | 350° |
| 2026-04-17 10:13 | 43.48538 | 7.16139 | 4010 ft | 176 kts | 357° |
| 2026-04-17 10:13 | 43.49709 | 7.16025 | 4002 ft | 160 kts | 357° |
| 2026-04-17 10:13 | 43.50785 | 7.15920 | 4005 ft | 153 kts | 357° |
| 2026-04-17 10:13 | 43.51842 | 7.15817 | 4010 ft | 152 kts | 357° |
| 2026-04-17 10:14 | 43.52898 | 7.15714 | 4003 ft | 152 kts | 357° |
| 2026-04-17 10:14 | 43.53944 | 7.15613 | 3789 ft | 150 kts | 357° |
| 2026-04-17 10:14 | 43.54984 | 7.15513 | 3514 ft | 146 kts | 357° |
| 2026-04-17 10:14 | 43.55966 | 7.15418 | 3245 ft | 139 kts | 358° |
| 2026-04-17 10:15 | 43.56932 | 7.15322 | 2889 ft | 140 kts | 357° |
| 2026-04-17 10:15 | 43.57904 | 7.15212 | 2525 ft | 140 kts | 356° |
| 2026-04-17 10:15 | 43.58863 | 7.15089 | 2238 ft | 138 kts | 356° |
| 2026-04-17 10:15 | 43.59818 | 7.14960 | 1875 ft | 139 kts | 355° |
| 2026-04-17 10:16 | 43.60765 | 7.14913 | 1555 ft | 136 kts | 13° |
| 2026-04-17 10:16 | 43.61634 | 7.15472 | 1263 ft | 139 kts | 41° |
| 2026-04-17 10:16 | 43.62324 | 7.16370 | 973 ft | 137 kts | 50° |
| 2026-04-17 10:16 | 43.62970 | 7.17335 | 681 ft | 136 kts | 46° |
| 2026-04-17 10:17 | 43.63635 | 7.18262 | 489 ft | 135 kts | 49° |
| 2026-04-17 10:17 | 43.64302 | 7.19183 | 318 ft | 135 kts | 48° |
| 2026-04-17 10:17 | 43.64964 | 7.20098 | 144 ft | 135 kts | 48° |
| 2026-04-17 10:17 | 43.65624 | 7.20993 | 30 ft | 124 kts | 49° |
| 2026-04-17 10:18 | 43.66128 | 7.21706 | 21 ft | 80 kts | 45° |
| 2026-04-17 10:18 | 43.66417 | 7.22104 | 22 ft | 48 kts | 45° |
| 2026-04-17 10:18 | 43.66643 | 7.22415 | 20 ft | 41 kts | 45° |
| 2026-04-17 10:18 | 43.66760 | 7.22474 | 21 ft | 17 kts | 322° |
| 2026-04-17 10:19 | 43.66821 | 7.22351 | 21 ft | 15 kts | 263° |
| 2026-04-17 10:19 | 43.66754 | 7.22246 | 21 ft | 15 kts | 225° |
| 2026-04-17 10:19 | 43.66676 | 7.22139 | 21 ft | 16 kts | 225° |
| 2026-04-17 10:19 | 43.66593 | 7.22024 | 21 ft | 17 kts | 225° |
| 2026-04-17 10:20 | 43.66505 | 7.21903 | 21 ft | 18 kts | 225° |
| 2026-04-17 10:20 | 43.66413 | 7.21776 | 21 ft | 19 kts | 224° |
| 2026-04-17 10:20 | 43.66315 | 7.21644 | 21 ft | 20 kts | 225° |
| 2026-04-17 10:20 | 43.66215 | 7.21504 | 21 ft | 21 kts | 224° |
| 2026-04-17 10:21 | 43.66110 | 7.21360 | 21 ft | 22 kts | 225° |
| 2026-04-17 10:21 | 43.66004 | 7.21216 | 21 ft | 17 kts | 225° |
| 2026-04-17 10:21 | 43.65927 | 7.21108 | 21 ft | 16 kts | 224° |
| 2026-04-17 10:21 | 43.65844 | 7.20996 | 21 ft | 17 kts | 225° |
| 2026-04-17 10:22 | 43.65793 | 7.20906 | 21 ft | 10 kts | 259° |
| 2026-04-17 10:22 | 43.65841 | 7.20853 | 21 ft | 10 kts | 350° |
| 2026-04-17 10:22 | 43.65913 | 7.20837 | 21 ft | 11 kts | 351° |
| 2026-04-17 10:22 | 43.65988 | 7.20820 | 21 ft | 7 kts | 351° |
| 2026-04-17 10:23 | 43.66003 | 7.20781 | 21 ft | 6 kts | 257° |
| 2026-04-17 10:23 | 43.65995 | 7.20724 | 21 ft | 6 kts | 258° |
| 2026-04-17 10:23 | 43.65994 | 7.20717 | 21 ft | 0 kts | 259° |